Time;durP1;ratioP1;P1;durP2;ratioP2;P2;SDS_P1;SDS_P2;PMS_P1;PMS_P2;Temp;Humidity;BMP_temperature;BMP_pressure;BME280_temperature;BME280_humidity;BME280_pressure;Samples;Min_cycle;Max_cycle;Signal;HPM_P1;HPM_P2
2021/10/19 00:02:36;;;;;;;13.40;7.20;;;;;;;10.67;80.29;101883.06;10288252;28;20509;-69
2021/10/19 00:07:36;;;;;;;10.82;7.07;;;;;;;10.73;80.65;101870.97;10284179;28;20072;-69
2021/10/19 00:12:33;;;;;;;12.45;7.93;;;;;;;10.78;79.64;101861.06;10293068;28;20041;-68
2021/10/19 00:17:30;;;;;;;16.15;8.63;;;;;;;10.80;79.20;101880.75;10291800;28;20060;-68
2021/10/19 00:22:26;;;;;;;11.90;7.22;;;;;;;10.82;80.33;101889.50;10290246;28;20106;-69
2021/10/19 00:27:22;;;;;;;12.82;8.00;;;;;;;10.80;79.53;101891.69;10300821;28;20459;-68
2021/10/19 00:32:19;;;;;;;12.70;8.43;;;;;;;10.83;79.45;101885.63;10295823;28;20580;-68
2021/10/19 00:37:15;;;;;;;12.48;8.60;;;;;;;10.81;79.78;101887.84;10294248;28;20099;-69
2021/10/19 00:42:12;;;;;;;14.40;8.40;;;;;;;10.85;79.59;101872.47;10300597;28;20086;-69
2021/10/19 00:47:09;;;;;;;11.98;8.88;;;;;;;10.84;79.38;101873.59;10298265;28;20060;-69
2021/10/19 00:52:06;;;;;;;13.93;8.57;;;;;;;10.88;79.37;101869.16;10282409;28;20040;-69
2021/10/19 00:57:02;;;;;;;13.32;7.90;;;;;;;10.90;78.73;101853.25;10299702;28;20065;-68
2021/10/19 01:01:59;;;;;;;11.80;7.78;;;;;;;10.91;78.90;101843.97;10273595;28;20402;-68
2021/10/19 01:06:56;;;;;;;12.20;8.77;;;;;;;10.92;78.73;101845.56;10252373;28;20041;-68
2021/10/19 01:11:53;;;;;;;14.55;7.60;;;;;;;10.94;78.39;101835.97;10251960;28;20046;-68
2021/10/19 01:16:50;;;;;;;15.07;8.43;;;;;;;10.93;78.51;101836.25;10277782;28;20095;-68
2021/10/19 01:21:58;;;;;;;14.68;8.00;;;;;;;10.94;78.65;101840.63;10289419;28;20083;-67
2021/10/19 01:26:55;;;;;;;12.48;7.38;;;;;;;10.93;78.43;101841.72;10288965;28;20045;-68
2021/10/19 01:31:54;;;;;;;15.82;9.32;;;;;;;10.94;79.02;101843.38;10282094;28;20075;-67
2021/10/19 01:36:51;;;;;;;16.05;8.85;;;;;;;10.91;79.62;101844.78;10276068;28;20060;-68
2021/10/19 01:41:48;;;;;;;15.82;9.02;;;;;;;10.92;79.22;101845.56;10261851;28;20063;-67
2021/10/19 01:46:44;;;;;;;14.10;8.68;;;;;;;10.93;79.12;101842.56;10272094;28;20083;-68
2021/10/19 01:51:40;;;;;;;17.25;10.25;;;;;;;10.94;79.41;101837.91;10287646;28;20043;-69
2021/10/19 01:56:37;;;;;;;16.45;9.30;;;;;;;10.96;79.04;101835.69;10284300;28;20068;-68
2021/10/19 02:01:37;;;;;;;14.38;10.10;;;;;;;11.01;78.80;101827.41;10285334;28;20065;-69
2021/10/19 02:06:34;;;;;;;15.82;9.57;;;;;;;10.99;78.67;101824.16;10292624;28;20052;-69
2021/10/19 02:11:31;;;;;;;15.63;9.50;;;;;;;11.04;78.70;101815.84;10298820;28;20079;-69
2021/10/19 02:16:27;;;;;;;15.82;9.80;;;;;;;11.08;78.06;101800.47;10310673;28;20040;-67
2021/10/19 02:21:24;;;;;;;16.67;10.85;;;;;;;11.07;79.30;101793.41;10291457;28;20506;-69
2021/10/19 02:26:20;;;;;;;17.52;8.98;;;;;;;11.09;78.29;101780.22;10295197;28;20045;-68
2021/10/19 02:31:17;;;;;;;19.33;10.80;;;;;;;11.07;78.61;101754.25;10304455;28;21626;-68
2021/10/19 02:36:13;;;;;;;17.50;9.32;;;;;;;11.00;78.48;101727.28;10286499;28;20049;-68
2021/10/19 02:41:10;;;;;;;16.45;11.00;;;;;;;10.93;78.63;101726.78;10292888;28;20140;-68
2021/10/19 02:46:06;;;;;;;18.05;10.73;;;;;;;10.88;78.34;101724.13;10299832;28;20071;-68
2021/10/19 02:51:03;;;;;;;19.38;10.70;;;;;;;10.87;79.06;101717.06;10285026;28;20037;-69
2021/10/19 02:55:59;;;;;;;17.63;10.70;;;;;;;10.87;78.97;101722.53;10286193;28;20078;-69
2021/10/19 03:00:56;;;;;;;19.17;12.00;;;;;;;10.84;79.54;101723.13;10277138;28;20044;-69
2021/10/19 03:05:52;;;;;;;20.98;11.60;;;;;;;10.86;79.29;101731.81;10288504;28;20051;-69
2021/10/19 03:10:49;;;;;;;19.73;12.32;;;;;;;10.87;79.03;101728.00;10280320;28;20091;-68
2021/10/19 03:15:45;;;;;;;20.77;11.40;;;;;;;10.84;78.85;101723.94;10286157;28;20502;-68
2021/10/19 03:20:42;;;;;;;21.58;12.68;;;;;;;10.77;78.84;101717.19;10284993;28;20128;-68
2021/10/19 03:25:39;;;;;;;22.48;13.15;;;;;;;10.81;79.45;101731.91;10290228;28;20856;-69
2021/10/19 03:30:35;;;;;;;23.75;12.55;;;;;;;10.82;79.22;101725.34;10293041;28;20072;-69
2021/10/19 03:35:32;;;;;;;22.98;13.40;;;;;;;10.82;79.47;101730.81;10295074;28;20056;-68
2021/10/19 03:40:32;;;;;;;20.30;13.15;;;;;;;10.85;79.96;101724.75;10291972;28;20040;-68
2021/10/19 03:45:29;;;;;;;21.60;12.52;;;;;;;10.85;80.30;101724.75;10300668;28;20056;-68
2021/10/19 03:50:25;;;;;;;21.15;13.18;;;;;;;10.84;79.95;101734.06;10295230;28;20079;-69
2021/10/19 03:55:22;;;;;;;21.77;13.13;;;;;;;10.88;79.75;101737.81;10287118;28;20036;-67
2021/10/19 04:00:19;;;;;;;21.85;13.02;;;;;;;10.90;80.07;101743.81;10289494;28;20041;-68
2021/10/19 04:05:15;;;;;;;20.65;12.10;;;;;;;10.88;79.77;101740.56;10287696;28;20118;-68
2021/10/19 04:10:15;;;;;;;24.55;14.40;;;;;;;10.87;80.02;101739.75;10290986;28;20044;-68
2021/10/19 04:15:12;;;;;;;23.73;15.25;;;;;;;10.91;79.90;101745.47;10293650;28;20048;-69
2021/10/19 04:20:09;;;;;;;22.73;13.07;;;;;;;10.90;80.26;101750.09;10292343;28;20075;-69
2021/10/19 04:25:06;;;;;;;22.58;13.30;;;;;;;10.90;79.88;101743.81;10285300;28;20736;-68
2021/10/19 04:30:04;;;;;;;22.05;13.65;;;;;;;10.91;80.22;101735.31;10287133;28;22315;-68
2021/10/19 04:35:00;;;;;;;26.10;14.27;;;;;;;10.93;80.73;101729.53;10294856;28;20083;-72
2021/10/19 04:39:57;;;;;;;22.55;13.15;;;;;;;10.96;80.39;101726.22;10296358;28;20045;-71
2021/10/19 04:44:53;;;;;;;21.73;13.27;;;;;;;11.00;80.53;101718.22;10287183;28;20044;-71
2021/10/19 04:49:50;;;;;;;19.92;13.90;;;;;;;11.04;80.75;101716.53;10283380;28;20057;-71
2021/10/19 04:54:46;;;;;;;20.38;14.50;;;;;;;11.04;81.20;101717.34;10296377;28;20044;-71
2021/10/19 04:59:43;;;;;;;19.60;12.95;;;;;;;11.07;81.10;101705.81;10290507;28;20075;-70
2021/10/19 05:04:39;;;;;;;23.27;13.43;;;;;;;11.11;81.01;101706.81;10284545;28;20094;-73
2021/10/19 05:09:36;;;;;;;22.27;14.60;;;;;;;11.15;81.16;101702.38;10285087;28;20052;-70
2021/10/19 05:14:33;;;;;;;19.55;13.15;;;;;;;11.19;81.00;101690.88;10290047;28;20464;-70
2021/10/19 05:19:30;;;;;;;22.45;14.20;;;;;;;11.23;80.42;101686.41;10281388;28;20449;-70
2021/10/19 05:24:26;;;;;;;25.88;15.07;;;;;;;11.24;81.09;101668.88;10283953;28;20080;-70
2021/10/19 05:29:23;;;;;;;26.30;14.38;;;;;;;11.22;81.31;101654.69;10296414;28;20109;-71
2021/10/19 05:34:19;;;;;;;23.25;15.35;;;;;;;11.23;81.71;101645.34;10288870;28;20152;-71
2021/10/19 05:39:17;;;;;;;22.17;15.63;;;;;;;11.23;82.26;101642.59;10283517;28;20722;-70
2021/10/19 05:44:14;;;;;;;24.02;15.02;;;;;;;11.21;82.04;101640.19;10278940;28;20853;-71
2021/10/19 05:49:10;;;;;;;23.58;14.68;;;;;;;11.21;82.37;101644.81;10280116;28;20143;-72
2021/10/19 05:54:07;;;;;;;23.42;14.98;;;;;;;11.21;82.54;101653.03;10290617;28;20075;-71
2021/10/19 05:59:03;;;;;;;25.95;16.50;;;;;;;11.23;82.95;101653.56;10285648;28;20040;-71
2021/10/19 06:04:00;;;;;;;20.98;15.23;;;;;;;11.26;82.67;101658.44;10271905;28;20064;-71
2021/10/19 06:08:56;;;;;;;25.38;14.80;;;;;;;11.26;82.70;101644.75;10284026;28;20099;-74
2021/10/19 06:13:53;;;;;;;23.33;15.77;;;;;;;11.29;82.51;101646.88;10286326;28;20147;-73
2021/10/19 06:18:50;;;;;;;25.02;15.00;;;;;;;11.32;82.37;101636.13;10274214;28;20037;-72
2021/10/19 06:23:46;;;;;;;25.58;15.00;;;;;;;11.34;82.25;101638.56;10262765;28;20538;-70
2021/10/19 06:28:42;;;;;;;28.77;16.85;;;;;;;11.36;82.50;101648.13;10259891;28;20072;-73
2021/10/19 06:33:39;;;;;;;24.05;15.35;;;;;;;11.45;82.34;101656.47;10264043;28;20094;-71
2021/10/19 06:38:35;;;;;;;24.98;15.95;;;;;;;11.48;82.18;101661.31;10261125;28;20057;-73
2021/10/19 06:43:32;;;;;;;23.00;15.85;;;;;;;11.53;82.58;101661.25;10256537;28;20045;-74
2021/10/19 06:48:28;;;;;;;24.75;15.18;;;;;;;11.54;82.54;101649.19;10278775;28;20052;-74
2021/10/19 06:53:25;;;;;;;26.85;15.40;;;;;;;11.57;82.58;101645.81;10298860;28;20072;-73
2021/10/19 06:58:24;;;;;;;21.65;15.55;;;;;;;11.65;82.79;101654.47;10298030;28;20048;-73
2021/10/19 07:03:23;;;;;;;25.02;15.30;;;;;;;11.67;82.64;101646.75;10299732;28;20661;-73
2021/10/19 07:08:22;;;;;;;21.02;14.63;;;;;;;11.75;82.38;101637.84;10268637;28;20052;-74
2021/10/19 07:13:23;;;;;;;22.23;15.57;;;;;;;11.80;82.50;101624.03;10272237;28;20041;-74
2021/10/19 07:18:22;;;;;;;24.17;15.63;;;;;;;11.82;82.50;101638.25;10269404;28;20049;-74
2021/10/19 07:23:18;;;;;;;25.85;16.77;;;;;;;11.77;82.68;101649.31;10268057;28;20137;-74
2021/10/19 07:28:15;;;;;;;20.42;14.50;;;;;;;11.85;82.92;101651.34;10266656;28;20053;-73
2021/10/19 07:33:13;;;;;;;29.35;17.63;;;;;;;11.96;82.73;101647.31;10263877;28;20127;-74
2021/10/19 07:38:11;;;;;;;21.63;15.23;;;;;;;11.99;82.78;101633.00;10271704;28;20076;-71
2021/10/19 07:43:08;;;;;;;22.95;16.13;;;;;;;12.04;82.61;101634.03;10266003;28;20044;-74
2021/10/19 07:48:04;;;;;;;24.15;15.80;;;;;;;12.04;82.73;101634.81;10265039;28;20083;-71
2021/10/19 07:53:01;;;;;;;28.65;15.77;;;;;;;12.17;82.67;101635.94;10254725;28;20037;-74
2021/10/19 07:57:57;;;;;;;24.15;15.95;;;;;;;12.28;82.44;101629.13;10259875;28;20041;-74
2021/10/19 08:02:55;;;;;;;23.08;15.73;;;;;;;12.36;82.60;101625.66;10269029;28;20037;-74
2021/10/19 08:08:04;;;;;;;24.85;16.38;;;;;;;12.46;82.39;101618.31;10265163;28;20455;-72
2021/10/19 08:13:01;;;;;;;23.50;15.63;;;;;;;12.55;82.68;101610.97;10266113;28;20137;-74
2021/10/19 08:17:57;;;;;;;21.45;14.73;;;;;;;12.62;82.55;101594.91;10261612;28;20488;-74
2021/10/19 08:22:54;;;;;;;24.92;15.98;;;;;;;12.72;82.04;101616.63;10268224;28;20052;-74
2021/10/19 08:27:51;;;;;;;22.30;14.85;;;;;;;12.80;81.95;101607.63;10267045;28;20045;-74
2021/10/19 08:32:49;;;;;;;19.77;14.07;;;;;;;12.87;81.59;101617.38;10274715;28;20086;-72
2021/10/19 08:37:46;;;;;;;21.48;15.02;;;;;;;12.93;81.42;101616.16;10294433;28;20114;-74
2021/10/19 08:42:47;;;;;;;22.15;14.40;;;;;;;12.99;81.63;101617.63;10286393;28;20071;-74
2021/10/19 08:47:46;;;;;;;25.42;15.07;;;;;;;13.01;81.63;101618.94;10294590;28;20154;-72
2021/10/19 08:52:42;;;;;;;23.67;14.57;;;;;;;13.06;81.93;101615.25;10289459;28;20070;-75
2021/10/19 08:57:39;;;;;;;23.13;14.70;;;;;;;13.11;81.60;101601.41;10297532;28;20040;-74
2021/10/19 09:02:41;;;;;;;23.10;14.07;;;;;;;13.21;82.02;101594.84;10269898;28;20136;-73
2021/10/19 09:07:38;;;;;;;23.90;14.95;;;;;;;13.34;82.09;101598.66;10273901;28;20741;-74
2021/10/19 09:12:35;;;;;;;23.63;14.65;;;;;;;13.41;81.71;101602.59;10292908;28;20131;-71
2021/10/19 09:17:38;;;;;;;18.58;13.77;;;;;;;13.52;81.96;101611.34;10284544;28;20073;-74
2021/10/19 09:22:35;;;;;;;24.20;14.13;;;;;;;13.56;82.12;101606.03;10290189;28;20463;-74
2021/10/19 09:27:31;;;;;;;21.90;13.70;;;;;;;13.59;82.00;101595.22;10293960;28;20078;-73
2021/10/19 09:32:28;;;;;;;20.98;13.32;;;;;;;13.68;82.24;101593.31;10296297;28;20076;-74
2021/10/19 09:37:24;;;;;;;16.70;11.40;;;;;;;13.70;82.30;101594.94;10301977;28;20045;-74
2021/10/19 09:42:25;;;;;;;17.80;11.75;;;;;;;13.73;82.44;101584.13;10294207;28;20119;-74
2021/10/19 09:47:21;;;;;;;17.80;11.45;;;;;;;13.81;82.35;101577.03;10278001;28;20076;-72
2021/10/19 09:52:18;;;;;;;19.77;11.50;;;;;;;13.91;82.04;101564.94;10272783;28;20045;-74
2021/10/19 09:57:16;;;;;;;16.67;10.43;;;;;;;14.01;81.86;101564.63;10256646;28;20061;-71
2021/10/19 10:02:14;;;;;;;15.23;10.70;;;;;;;14.09;81.66;101563.84;10258005;28;20083;-74
2021/10/19 10:07:13;;;;;;;16.25;11.45;;;;;;;14.17;81.38;101548.47;10262375;28;20080;-73
2021/10/19 10:12:10;;;;;;;17.60;11.43;;;;;;;14.20;80.92;101532.16;10270311;28;20084;-73
2021/10/19 10:17:09;;;;;;;17.02;11.02;;;;;;;14.26;81.04;101519.03;10254963;28;20075;-74
2021/10/19 10:22:42;;;;;;;14.40;9.82;;;;;;;14.32;81.08;101515.00;10261745;28;20042;-73
2021/10/19 10:27:40;;;;;;;13.80;10.13;;;;;;;14.42;81.27;101511.91;10254857;28;20548;-73
2021/10/19 10:32:37;;;;;;;13.50;9.77;;;;;;;14.51;81.20;101515.47;10259706;28;20045;-74
2021/10/19 10:37:35;;;;;;;18.08;10.93;;;;;;;14.47;80.65;101506.25;10264658;28;20072;-74
2021/10/19 10:42:41;;;;;;;14.18;11.15;;;;;;;14.43;81.22;101497.03;10259402;28;20095;-71
2021/10/19 10:47:53;;;;;;;13.10;9.88;;;;;;;14.46;81.68;101499.13;10259217;28;20103;-72
2021/10/19 10:53:05;;;;;;;14.40;10.05;;;;;;;14.47;81.93;101498.00;10252071;28;20152;-73
2021/10/19 10:58:02;;;;;;;15.38;9.52;;;;;;;14.53;82.13;101484.91;10262275;28;20128;-74
2021/10/19 11:03:25;;;;;;;15.15;10.35;;;;;;;14.53;82.54;101477.44;10252762;28;20095;-74
2021/10/19 11:08:31;;;;;;;14.43;10.63;;;;;;;14.51;82.23;101460.44;10250108;28;20068;-73
2021/10/19 11:13:32;;;;;;;13.63;9.63;;;;;;;14.53;82.95;101452.69;10262949;28;20094;-73
2021/10/19 11:18:29;;;;;;;15.90;10.63;;;;;;;14.56;83.26;101455.94;10252731;28;20063;-73
2021/10/19 11:23:26;;;;;;;14.38;10.05;;;;;;;14.57;82.61;101463.06;10260020;28;20037;-72
2021/10/19 11:28:23;;;;;;;18.23;10.50;;;;;;;14.55;82.98;101463.41;10254762;28;20518;-75
2021/10/19 11:33:21;;;;;;;13.25;10.38;;;;;;;14.49;83.50;101457.22;10267647;28;20033;-74
2021/10/19 11:38:17;;;;;;;15.07;9.57;;;;;;;14.44;84.13;101465.63;10259277;28;20044;-72
2021/10/19 11:43:18;;;;;;;14.07;9.52;;;;;;;14.45;84.52;101461.75;10269291;28;20045;-73
2021/10/19 11:48:15;;;;;;;13.57;10.27;;;;;;;14.49;84.48;101448.94;10280076;28;20356;-74
2021/10/19 11:53:12;;;;;;;13.10;9.10;;;;;;;14.50;84.46;101453.34;10284973;28;20140;-72
2021/10/19 11:58:09;;;;;;;18.48;9.85;;;;;;;14.50;84.81;101436.81;10296924;28;20041;-74
2021/10/19 12:03:05;;;;;;;13.65;9.45;;;;;;;14.51;84.37;101427.41;10288102;28;20563;-73
2021/10/19 12:08:03;;;;;;;15.02;10.35;;;;;;;14.50;84.39;101431.31;10287759;28;20155;-73
2021/10/19 12:13:08;;;;;;;13.48;9.48;;;;;;;14.48;85.12;101430.00;10308701;28;20083;-73
2021/10/19 12:18:23;;;;;;;14.70;9.77;;;;;;;14.49;84.73;101424.19;10287046;28;20080;-71
2021/10/19 12:23:20;;;;;;;14.85;10.02;;;;;;;14.52;85.08;101412.53;10302583;28;20398;-73
2021/10/19 12:28:19;;;;;;;16.50;10.40;;;;;;;14.53;85.31;101403.16;10299852;28;20119;-73
2021/10/19 12:33:20;;;;;;;13.93;10.98;;;;;;;14.55;85.69;101399.28;10295784;28;20119;-70
2021/10/19 12:38:18;;;;;;;23.52;11.00;;;;;;;14.59;86.15;101379.03;10301596;28;20048;-72
2021/10/19 12:43:14;;;;;;;14.40;10.63;;;;;;;14.60;85.87;101377.09;10308914;28;20128;-72
2021/10/19 12:48:32;;;;;;;14.63;9.50;;;;;;;14.59;86.25;101362.50;10277524;28;20099;-71
2021/10/19 12:53:29;;;;;;;19.10;10.85;;;;;;;14.60;86.26;101374.34;10271501;28;20127;-73
2021/10/19 12:58:27;;;;;;;16.50;10.65;;;;;;;14.57;86.36;101375.00;10257171;28;20476;-73
2021/10/19 13:03:24;;;;;;;15.13;11.38;;;;;;;14.55;86.93;101369.00;10269130;28;20537;-73
2021/10/19 13:08:22;;;;;;;15.30;9.88;;;;;;;14.58;87.73;101376.63;10275354;28;20041;-72
2021/10/19 13:13:20;;;;;;;13.10;9.38;;;;;;;14.58;87.70;101371.13;10292861;28;20124;-73
2021/10/19 13:18:16;;;;;;;12.50;8.90;;;;;;;14.57;87.93;101375.00;10299458;28;20049;-73
2021/10/19 13:23:13;;;;;;;11.80;9.18;;;;;;;14.53;88.68;101374.81;10283970;28;20506;-72
2021/10/19 13:28:11;;;;;;;13.07;9.73;;;;;;;14.51;89.31;101366.88;10275998;28;20498;-70
2021/10/19 13:33:08;;;;;;;15.00;9.30;;;;;;;14.46;89.59;101358.81;10279206;28;20044;-72
2021/10/19 13:38:05;;;;;;;14.88;9.52;;;;;;;14.45;89.88;101357.19;10286911;28;20053;-73
2021/10/19 13:43:04;;;;;;;13.90;7.72;;;;;;;14.43;91.56;101345.69;10298985;28;20066;-72
2021/10/19 13:48:01;;;;;;;10.85;7.97;;;;;;;14.36;91.78;101339.91;10289545;28;20072;-73
2021/10/19 13:52:57;;;;;;;13.05;8.25;;;;;;;14.37;92.19;101326.97;10299309;28;20044;-73
2021/10/19 13:57:54;;;;;;;13.80;8.68;;;;;;;14.32;92.94;101327.97;10287855;28;20040;-73
2021/10/19 14:02:50;;;;;;;12.20;8.18;;;;;;;14.28;93.17;101324.25;10297934;28;20113;-71
2021/10/19 14:07:47;;;;;;;11.48;8.02;;;;;;;14.30;93.25;101316.47;10299026;28;20071;-73
2021/10/19 14:12:44;;;;;;;15.15;8.43;;;;;;;14.27;93.59;101325.38;10310104;28;20055;-73
2021/10/19 14:17:40;;;;;;;12.85;8.32;;;;;;;14.28;93.57;101318.75;10279363;28;20037;-73
2021/10/19 14:22:40;;;;;;;14.52;9.23;;;;;;;14.23;94.49;101316.16;10272870;28;20478;-72
2021/10/19 14:27:36;;;;;;;14.02;9.55;;;;;;;14.23;94.62;101307.94;10273810;28;20045;-73
2021/10/19 14:32:32;;;;;;;15.38;9.68;;;;;;;14.23;95.23;101296.91;10273330;28;20049;-73
2021/10/19 14:37:29;;;;;;;15.98;10.85;;;;;;;14.22;95.39;101296.09;10272744;28;20044;-72
2021/10/19 14:42:26;;;;;;;13.68;9.55;;;;;;;14.22;95.92;101292.53;10273664;28;20063;-74
2021/10/19 14:47:22;;;;;;;14.27;9.77;;;;;;;14.22;96.43;101303.53;10272458;28;20045;-74
2021/10/19 14:52:19;;;;;;;16.42;10.65;;;;;;;14.21;96.68;101285.44;10278377;28;20072;-72
2021/10/19 14:57:15;;;;;;;15.93;10.15;;;;;;;14.23;96.81;101266.66;10301211;28;20048;-73
2021/10/19 15:02:12;;;;;;;16.63;10.10;;;;;;;14.21;97.14;101252.44;10303338;28;20040;-73
2021/10/19 15:07:12;;;;;;;17.17;11.82;;;;;;;14.21;97.54;101242.22;10294067;28;20717;-73
2021/10/19 15:12:08;;;;;;;17.13;9.93;;;;;;;14.22;97.59;101248.53;10287849;28;20560;-71
2021/10/19 15:17:05;;;;;;;13.23;10.23;;;;;;;14.21;98.11;101241.44;10289970;28;20090;-71
2021/10/19 15:22:03;;;;;;;12.50;9.75;;;;;;;14.21;98.06;101252.44;10295969;28;20037;-71
2021/10/19 15:27:00;;;;;;;18.73;12.00;;;;;;;14.19;99.22;101232.72;10294804;28;20072;-72
2021/10/19 15:31:57;;;;;;;18.60;14.02;;;;;;;14.12;100.00;101233.22;10292895;28;20045;-72
2021/10/19 15:36:53;;;;;;;18.77;13.40;;;;;;;14.06;100.00;101229.00;10284757;28;20053;-70
2021/10/19 15:41:50;;;;;;;16.77;12.85;;;;;;;14.05;100.00;101228.22;10282496;28;20036;-72
2021/10/19 15:46:47;;;;;;;17.13;12.93;;;;;;;14.01;100.00;101221.75;10305685;28;20122;-72
2021/10/19 15:51:44;;;;;;;22.77;14.00;;;;;;;13.96;100.00;101213.69;10300358;28;20513;-73
2021/10/19 15:56:44;;;;;;;19.27;13.52;;;;;;;13.93;100.00;101214.34;10299124;28;20045;-73
2021/10/19 16:01:40;;;;;;;18.63;13.55;;;;;;;13.94;100.00;101215.97;10297673;28;20044;-73
2021/10/19 16:06:41;;;;;;;21.13;14.65;;;;;;;13.95;100.00;101200.25;10296013;28;20060;-71
2021/10/19 16:11:38;;;;;;;16.35;12.55;;;;;;;13.94;100.00;101204.97;10293089;28;20498;-72
2021/10/19 16:16:34;;;;;;;17.10;11.90;;;;;;;14.01;100.00;101194.25;10295375;28;20510;-72
2021/10/19 16:21:33;;;;;;;15.70;11.88;;;;;;;14.00;100.00;101186.38;10290153;28;20518;-71
2021/10/19 16:26:31;;;;;;;17.13;11.50;;;;;;;13.97;100.00;101182.34;10306418;28;20102;-72
2021/10/19 16:31:27;;;;;;;16.00;12.02;;;;;;;13.95;100.00;101176.34;10294989;28;20073;-71
2021/10/19 16:36:26;;;;;;;15.20;11.85;;;;;;;13.98;100.00;101170.19;10295133;28;20075;-72
2021/10/19 16:41:23;;;;;;;13.02;10.55;;;;;;;14.00;100.00;101176.16;10287283;28;20135;-72
2021/10/19 16:46:22;;;;;;;14.05;10.80;;;;;;;13.99;100.00;101163.53;10292012;28;20414;-71
2021/10/19 16:51:20;;;;;;;11.35;10.00;;;;;;;14.02;100.00;101157.41;10308822;28;20098;-73
2021/10/19 16:56:16;;;;;;;14.82;10.30;;;;;;;14.05;100.00;101145.72;10299487;28;20118;-72
2021/10/19 17:01:13;;;;;;;12.27;9.60;;;;;;;14.07;100.00;101137.97;10293006;28;20041;-72
2021/10/19 17:06:11;;;;;;;11.00;9.52;;;;;;;14.13;100.00;101138.56;10298029;28;20505;-71
2021/10/19 17:11:10;;;;;;;13.02;10.05;;;;;;;14.17;100.00;101135.97;10299193;28;20102;-72
2021/10/19 17:16:08;;;;;;;10.70;9.20;;;;;;;14.18;100.00;101137.56;10286361;28;20064;-72
2021/10/19 17:21:05;;;;;;;11.55;10.02;;;;;;;14.21;100.00;101131.44;10276784;28;20044;-72
2021/10/19 17:26:02;;;;;;;12.20;10.57;;;;;;;14.23;100.00;101140.16;10272226;28;20469;-72
2021/10/19 17:31:00;;;;;;;12.63;10.52;;;;;;;14.25;100.00;101132.34;10266642;28;20087;-71
2021/10/19 17:35:58;;;;;;;14.90;12.63;;;;;;;14.35;100.00;101137.50;10278607;28;20056;-72
2021/10/19 17:40:55;;;;;;;14.73;13.23;;;;;;;14.38;100.00;101131.31;10274250;28;20067;-72
2021/10/19 17:45:52;;;;;;;14.50;13.05;;;;;;;14.48;100.00;101141.13;10275668;28;20071;-71
2021/10/19 17:50:49;;;;;;;15.50;13.80;;;;;;;14.55;100.00;101140.63;10273587;28;20047;-72
2021/10/19 17:55:45;;;;;;;17.45;15.55;;;;;;;14.57;100.00;101138.34;10274561;28;20045;-70
2021/10/19 18:00:41;;;;;;;22.75;17.23;;;;;;;14.60;100.00;101148.69;10274386;28;20045;-72
2021/10/19 18:05:38;;;;;;;19.13;17.13;;;;;;;14.63;100.00;101137.00;10273775;28;20048;-71
2021/10/19 18:10:35;;;;;;;18.17;16.27;;;;;;;14.69;100.00;101130.16;10269583;28;20052;-72
2021/10/19 18:15:32;;;;;;;18.63;16.63;;;;;;;14.69;100.00;101114.47;10291679;28;20045;-72
2021/10/19 18:20:30;;;;;;;19.02;15.60;;;;;;;14.67;100.00;101113.19;10286040;28;20120;-71
2021/10/19 18:25:26;;;;;;;21.00;16.58;;;;;;;14.71;100.00;101119.63;10291251;28;20067;-72
2021/10/19 18:30:24;;;;;;;23.98;19.20;;;;;;;14.72;100.00;101118.50;10301198;28;20053;-71
2021/10/19 18:35:21;;;;;;;23.85;18.05;;;;;;;14.82;100.00;101107.06;10308027;28;20074;-72
2021/10/19 18:40:20;;;;;;;21.45;17.45;;;;;;;14.90;100.00;101125.47;10289361;28;20056;-72
2021/10/19 18:45:21;;;;;;;19.95;16.45;;;;;;;14.96;100.00;101111.47;10291755;28;20060;-73
2021/10/19 18:50:19;;;;;;;22.90;17.48;;;;;;;15.03;100.00;101128.25;10284863;28;20056;-72
2021/10/19 18:55:16;;;;;;;21.75;15.90;;;;;;;15.08;100.00;101108.75;10288265;28;20080;-72
2021/10/19 19:00:13;;;;;;;22.80;17.58;;;;;;;15.12;100.00;101109.72;10296137;28;20048;-72
2021/10/19 19:05:11;;;;;;;26.05;17.00;;;;;;;15.15;100.00;101114.53;10297295;28;20075;-72
2021/10/19 19:10:09;;;;;;;20.85;16.27;;;;;;;15.19;100.00;101101.69;10301769;28;20426;-71
2021/10/19 19:15:08;;;;;;;24.50;19.65;;;;;;;15.21;100.00;101088.38;10296844;28;20044;-72
2021/10/19 19:20:11;;;;;;;25.35;17.52;;;;;;;15.21;100.00;101091.16;10295416;28;20044;-72
2021/10/19 19:25:07;;;;;;;26.35;18.10;;;;;;;15.21;100.00;101093.91;10283971;28;20045;-71
2021/10/19 19:30:05;;;;;;;24.00;18.67;;;;;;;15.27;100.00;101077.94;10287488;28;20423;-72
2021/10/19 19:35:03;;;;;;;23.45;17.80;;;;;;;15.26;100.00;101084.63;10289794;28;20041;-73
2021/10/19 19:39:59;;;;;;;25.85;18.65;;;;;;;15.28;100.00;101085.88;10290485;28;20041;-71
2021/10/19 19:44:56;;;;;;;27.35;19.88;;;;;;;15.31;100.00;101074.16;10295837;28;20105;-71
2021/10/19 19:49:52;;;;;;;27.27;20.25;;;;;;;15.32;100.00;101078.56;10297534;28;20102;-68
2021/10/19 19:54:49;;;;;;;26.48;19.25;;;;;;;15.32;100.00;101078.56;10284337;28;20158;-70
2021/10/19 19:59:45;;;;;;;27.45;19.45;;;;;;;15.30;100.00;101071.78;10290353;28;20041;-68
2021/10/19 20:04:42;;;;;;;28.70;20.25;;;;;;;15.28;100.00;101085.88;10307786;28;20041;-68
2021/10/19 20:09:38;;;;;;;27.58;20.15;;;;;;;15.35;100.00;101088.88;10293489;28;20052;-68
2021/10/19 20:14:36;;;;;;;30.50;20.88;;;;;;;15.38;100.00;101092.09;10309627;28;20541;-69
2021/10/19 20:19:32;;;;;;;31.88;22.38;;;;;;;15.42;100.00;101080.06;10297288;28;20072;-68
2021/10/19 20:24:31;;;;;;;26.08;20.58;;;;;;;15.44;100.00;101072.25;10302609;28;20067;-68
2021/10/19 20:29:28;;;;;;;31.90;22.63;;;;;;;15.41;100.00;101078.47;10303767;28;20076;-69
2021/10/19 20:34:25;;;;;;;29.38;22.58;;;;;;;15.42;100.00;101080.06;10307755;28;20072;-67
2021/10/19 20:39:22;;;;;;;33.30;22.60;;;;;;;15.43;100.00;101069.84;10291426;28;20088;-68
2021/10/19 20:44:19;;;;;;;29.25;20.90;;;;;;;15.43;100.00;101075.34;10293910;28;20449;-68
2021/10/19 20:49:16;;;;;;;29.05;21.05;;;;;;;15.44;100.00;101060.44;10302829;28;20084;-68
2021/10/19 20:54:12;;;;;;;31.33;23.00;;;;;;;15.44;100.00;101054.94;10294394;28;20041;-68
2021/10/19 20:59:12;;;;;;;28.83;21.38;;;;;;;15.45;100.00;101045.50;10296113;28;20045;-68
2021/10/19 21:04:10;;;;;;;34.40;21.30;;;;;;;15.45;100.00;101048.25;10297634;28;20069;-68
2021/10/19 21:09:06;;;;;;;30.33;21.98;;;;;;;15.48;100.00;101033.78;10289888;28;20064;-69
2021/10/19 21:14:03;;;;;;;28.15;21.05;;;;;;;15.48;100.00;101028.28;10301847;28;20037;-69
2021/10/19 21:18:59;;;;;;;31.45;23.17;;;;;;;15.47;100.00;101021.97;10295028;28;20048;-68
2021/10/19 21:23:56;;;;;;;31.48;20.58;;;;;;;15.50;100.00;101014.94;10282966;28;20037;-68
2021/10/19 21:28:52;;;;;;;30.92;21.90;;;;;;;15.49;100.00;101016.13;10272784;28;20150;-69
2021/10/19 21:33:49;;;;;;;31.80;20.45;;;;;;;15.51;100.00;101002.81;10280434;28;20406;-69
2021/10/19 21:38:45;;;;;;;25.98;20.20;;;;;;;15.55;100.00;101003.72;10275082;28;20103;-68
2021/10/19 21:43:42;;;;;;;27.75;18.55;;;;;;;15.55;100.00;101006.47;10275103;28;20043;-69
2021/10/19 21:48:39;;;;;;;26.42;18.98;;;;;;;15.62;100.00;100994.84;10294588;28;20072;-69
2021/10/19 21:53:35;;;;;;;25.83;19.40;;;;;;;15.64;100.00;100984.28;10301146;28;20052;-68
2021/10/19 21:58:32;;;;;;;24.58;18.88;;;;;;;15.66;100.00;100980.03;10295158;28;20040;-69
2021/10/19 22:03:29;;;;;;;27.08;19.30;;;;;;;15.68;100.00;100975.00;10297554;28;20044;-70
2021/10/19 22:08:26;;;;;;;23.30;18.10;;;;;;;15.73;100.00;100966.53;10296806;28;20499;-69
2021/10/19 22:13:24;;;;;;;22.17;16.88;;;;;;;15.75;100.00;100949.63;10295614;28;20491;-70
2021/10/19 22:18:21;;;;;;;22.23;17.45;;;;;;;15.75;100.00;100944.91;10290411;28;20482;-70